Startpagina
METAR-TAF:

METAR-TAF

Vliegvelden :

Batajnica, Servië

breedte: 44-56-07N, lengte: 020-15-27E, hoogte: 86 m

Actueel weer

Dit bericht is 44 minuten geleden gemaakt, om 04:00 UTC
Wind 1 kt uit het noorden
Temperatuur 15°C
Vochtigheid 72%
Druk 1022 hPa
Zicht 10 km of meer
Gebroken wolken op 4500 ft

METAR: LYBT 230400Z 01001KT 9999 BKN045 15/10 Q1022 NOSIG

Tijdstip: 06:44 (04:44 UTC)

Verwachting

Dit bericht is 5 uur en het 44 minuten geleden gemaakt, om 23:00 UTC
Verwachting geldig van 23 om 00 UTC tot 23 om 24 UTC
Wind 2 kt uit variabele richting
Zicht 10 km of meer
geen wolken onder 1500 m en geen cumulonimbus
Wijzigt naar
van 23 om 18 UTC tot 23 om 20 UTC
Wind 10 kt uit het oostzuidoosten

TAF: LYBT 222300Z 2300/2324 VRB02KT CAVOK TX27/2313Z TN12/2305Z BECMG 2318/2320 12010KT

Waarnemingen en weersverwachtingen van meer dan 4000 vliegvelden (METAR en TAF).

De beschikbare stations zijn de gele en rode punten op de kaart.

Ga met uw muis naar het station om de naam te zien.

Klik dan om waarnemingen en weersverwachtingen te zien.

kaart wijzigen: klik op de groene knoppen met een zwart kruis om in te zoomen, op de groene knop met een streepje om uit te zoomen of op de groene pijlen voor aangrenzende kaarten.


METAR-TAF: